createdAt,value
2023-04-19T00:01:32.696Z,8.98
2023-04-19T00:04:00.759Z,9.65
2023-04-19T00:06:31.893Z,8.96
2023-04-19T00:08:59.597Z,8.84
2023-04-19T00:11:27.313Z,9.43
2023-04-19T00:13:55.043Z,9.53
2023-04-19T00:16:24.149Z,9.33
2023-04-19T00:18:51.947Z,8.67
2023-04-19T00:21:19.667Z,9.14
2023-04-19T00:23:47.431Z,8.89
2023-04-19T00:26:15.703Z,8.57
2023-04-19T00:28:43.464Z,9.25
2023-04-19T00:31:11.280Z,8.94
2023-04-19T00:33:40.413Z,8.66
2023-04-19T00:36:08.678Z,9.22
2023-04-19T00:38:36.393Z,8.73
2023-04-19T00:41:04.170Z,8.96
2023-04-19T00:43:32.012Z,8.55
2023-04-19T00:46:00.050Z,8.58
2023-04-19T00:48:27.952Z,8.28
2023-04-19T00:50:57.055Z,8.70
2023-04-19T00:53:24.844Z,8.93
2023-04-19T00:55:52.650Z,8.78
2023-04-19T00:58:20.740Z,8.44
2023-04-19T01:00:48.459Z,7.95
2023-04-19T01:03:17.042Z,8.90
2023-04-19T01:05:44.920Z,8.86
2023-04-19T01:08:14.033Z,8.84
2023-04-19T01:10:41.783Z,8.41
2023-04-19T01:13:09.537Z,9.10
2023-04-19T01:15:37.895Z,8.38
2023-04-19T01:18:05.854Z,8.26
2023-04-19T01:20:33.829Z,8.61
2023-04-19T01:23:02.996Z,8.59
2023-04-19T01:25:31.077Z,8.98
2023-04-19T01:27:58.805Z,8.27
2023-04-19T01:30:26.536Z,8.29
2023-04-19T01:32:54.286Z,8.41
2023-04-19T01:35:22.214Z,8.71
2023-04-19T01:37:50.658Z,8.83
2023-04-19T01:40:20.512Z,8.90
2023-04-19T01:42:48.254Z,8.82
2023-04-19T01:45:16.228Z,9.15
2023-04-19T01:47:44.008Z,9.29
2023-04-19T01:50:12.216Z,8.90
2023-04-19T01:52:40.034Z,8.64
2023-04-19T01:55:08.282Z,8.47
2023-04-19T01:57:37.356Z,8.80
2023-04-19T02:00:06.235Z,8.86
2023-04-19T02:02:34.131Z,9.12
2023-04-19T02:05:02.060Z,8.78
2023-04-19T02:07:29.809Z,8.95
2023-04-19T02:10:00.520Z,9.11
2023-04-19T02:12:29.534Z,8.98
2023-04-19T02:14:59.612Z,8.83
2023-04-19T02:17:27.810Z,8.87
2023-04-19T02:19:55.834Z,9.29
2023-04-19T02:22:23.576Z,9.32
2023-04-19T02:24:51.971Z,9.19
2023-04-19T02:27:19.754Z,8.90
2023-04-19T02:29:47.503Z,9.12
2023-04-19T02:32:16.622Z,9.06
2023-04-19T02:34:44.452Z,8.92
2023-04-19T02:37:12.165Z,8.70
2023-04-19T02:39:41.778Z,8.56
2023-04-19T02:42:09.480Z,8.42
2023-04-19T02:44:37.197Z,8.95
2023-04-19T02:47:05.101Z,8.54
2023-04-19T02:49:36.496Z,8.85
2023-04-19T02:52:04.312Z,8.90
2023-04-19T02:54:33.267Z,8.84
2023-04-19T02:57:01.094Z,8.90
2023-04-19T02:59:28.836Z,9.01
2023-04-19T03:01:56.694Z,8.91
2023-04-19T03:04:24.699Z,9.15
2023-04-19T03:06:53.960Z,9.43
2023-04-19T03:09:21.718Z,9.32
2023-04-19T03:11:49.424Z,8.82
2023-04-19T03:14:17.278Z,8.99
2023-04-19T03:16:45.258Z,8.47
2023-04-19T03:19:12.941Z,8.30
2023-04-19T03:21:41.254Z,8.65
2023-04-19T03:24:10.507Z,8.35
2023-04-19T03:26:38.249Z,8.29
2023-04-19T03:29:06.090Z,8.47
2023-04-19T03:31:33.896Z,8.30
2023-04-19T03:34:01.717Z,8.60
2023-04-19T03:36:29.575Z,8.45
2023-04-19T03:38:57.297Z,8.41
2023-04-19T03:41:28.150Z,8.73
2023-04-19T03:43:55.873Z,8.44
2023-04-19T03:46:23.621Z,8.44
2023-04-19T03:48:51.525Z,8.76
2023-04-19T03:51:19.430Z,8.63
2023-04-19T03:53:47.130Z,8.11
2023-04-19T03:56:14.914Z,8.39
2023-04-19T03:58:43.992Z,8.22
2023-04-19T04:01:19.192Z,8.56
2023-04-19T04:03:47.042Z,8.67
2023-04-19T04:06:15.038Z,8.82
2023-04-19T04:08:42.751Z,8.48
2023-04-19T04:11:10.600Z,8.21
2023-04-19T04:13:38.505Z,8.58
2023-04-19T04:16:07.766Z,8.62
2023-04-19T04:18:36.119Z,8.86
2023-04-19T04:21:03.960Z,8.68
2023-04-19T04:23:31.954Z,8.83
2023-04-19T04:26:00.835Z,8.65
2023-04-19T04:28:29.045Z,9.16
2023-04-19T04:30:57.481Z,8.60
2023-04-19T04:33:27.377Z,8.93
2023-04-19T04:35:56.466Z,9.02
2023-04-19T04:38:25.240Z,8.94
2023-04-19T04:40:53.692Z,9.13
2023-04-19T04:43:22.733Z,8.76
2023-04-19T04:45:50.912Z,9.27
2023-04-19T04:48:19.099Z,9.17
2023-04-19T04:50:48.222Z,9.28
2023-04-19T04:53:16.019Z,9.28
2023-04-19T04:55:43.793Z,8.95
2023-04-19T04:58:11.502Z,9.50
2023-04-19T05:00:39.657Z,9.29
2023-04-19T05:03:07.879Z,8.92
2023-04-19T05:05:35.905Z,9.31
2023-04-19T05:08:05.459Z,9.52
2023-04-19T05:10:33.177Z,9.46
2023-04-19T05:13:05.678Z,9.46
2023-04-19T05:15:33.423Z,9.52
2023-04-19T05:18:01.243Z,9.31
2023-04-19T05:20:29.858Z,9.11
2023-04-19T05:23:01.437Z,9.76
2023-04-19T05:25:30.858Z,9.74
2023-04-19T05:27:58.976Z,9.60
2023-04-19T05:30:26.697Z,9.47
2023-04-19T05:32:54.508Z,9.82
2023-04-19T05:35:22.551Z,9.83
2023-04-19T05:37:50.292Z,9.54
2023-04-19T05:40:19.241Z,9.96
2023-04-19T05:42:48.324Z,10.13
2023-04-19T05:45:18.543Z,9.82
2023-04-19T05:47:46.298Z,9.58
2023-04-19T05:50:15.004Z,9.79
2023-04-19T05:52:42.810Z,9.65
2023-04-19T05:55:10.990Z,10.04
2023-04-19T05:57:38.787Z,10.42
2023-04-19T06:00:10.952Z,9.88
2023-04-19T06:02:38.814Z,9.82
2023-04-19T06:05:10.443Z,9.99
2023-04-19T06:07:43.267Z,9.85
2023-04-19T06:10:15.140Z,10.05
2023-04-19T06:12:42.843Z,10.01
2023-04-19T06:15:12.922Z,10.51
2023-04-19T06:17:40.762Z,10.42
2023-04-19T06:20:10.592Z,10.09
2023-04-19T06:22:43.592Z,10.19
2023-04-19T06:25:11.503Z,10.84
2023-04-19T06:27:39.216Z,10.60
2023-04-19T06:30:08.290Z,10.82
2023-04-19T06:32:37.403Z,10.73
2023-04-19T06:35:07.047Z,11.41
2023-04-19T06:37:34.853Z,10.79
2023-04-19T06:40:02.655Z,10.50
2023-04-19T06:42:30.355Z,10.70
2023-04-19T06:44:58.185Z,10.51
2023-04-19T06:47:25.987Z,11.16
2023-04-19T06:49:55.297Z,10.99
2023-04-19T06:52:23.115Z,10.81
2023-04-19T06:54:51.286Z,11.11
2023-04-19T06:57:20.026Z,10.72
2023-04-19T06:59:47.801Z,10.59
2023-04-19T07:02:15.598Z,11.13
2023-04-19T07:04:43.480Z,11.04
2023-04-19T07:07:13.626Z,10.97
2023-04-19T07:09:41.324Z,10.78
2023-04-19T07:12:09.311Z,11.00
2023-04-19T07:14:37.155Z,11.41
2023-04-19T07:17:05.811Z,12.06
2023-04-19T07:19:35.524Z,11.76
2023-04-19T07:22:03.516Z,11.67
2023-04-19T07:24:32.931Z,12.05
2023-04-19T07:27:01.840Z,11.33
2023-04-19T07:29:29.769Z,11.75
2023-04-19T07:31:59.634Z,12.06
2023-04-19T07:34:27.426Z,11.75
2023-04-19T07:36:55.128Z,11.81
2023-04-19T07:39:22.847Z,11.87
2023-04-19T07:41:51.948Z,11.95
2023-04-19T07:44:19.936Z,12.29
2023-04-19T07:46:47.702Z,12.09
2023-04-19T07:49:15.624Z,12.15
2023-04-19T07:51:43.370Z,12.59
2023-04-19T07:54:11.445Z,12.50
2023-04-19T07:56:39.227Z,12.60
2023-04-19T07:59:09.591Z,12.32
2023-04-19T08:01:38.136Z,12.28
2023-04-19T08:04:06.568Z,12.28
2023-04-19T08:06:34.616Z,12.66
2023-04-19T08:09:03.095Z,12.35
2023-04-19T08:11:30.894Z,13.16
2023-04-19T08:14:28.412Z,12.93
2023-04-19T08:19:18.591Z,12.67
2023-04-19T08:21:46.326Z,12.90
2023-04-19T08:26:42.406Z,12.75
2023-04-19T08:29:10.138Z,13.00
2023-04-19T08:31:38.150Z,12.89
2023-04-19T08:34:07.231Z,13.17
2023-04-19T08:36:39.401Z,12.97
2023-04-19T08:39:17.773Z,12.87
2023-04-19T08:42:02.899Z,12.61
2023-04-19T08:44:36.811Z,13.29
2023-04-19T08:47:07.291Z,13.15
2023-04-19T08:49:39.951Z,13.53
2023-04-19T08:52:11.103Z,12.85
2023-04-19T08:54:39.818Z,12.91
2023-04-19T08:57:08.570Z,13.23
2023-04-19T08:59:36.470Z,13.03
2023-04-19T09:02:04.362Z,12.86
2023-04-19T09:04:36.386Z,12.93
2023-04-19T09:07:08.161Z,13.60
2023-04-19T09:09:45.668Z,13.60
2023-04-19T09:12:23.550Z,13.02
2023-04-19T09:17:21.916Z,13.00
2023-04-19T09:19:50.961Z,13.32
2023-04-19T09:22:20.238Z,13.60
2023-04-19T09:27:27.265Z,14.35
2023-04-19T09:29:55.513Z,13.87
2023-04-19T09:32:23.462Z,13.65
2023-04-19T09:34:56.481Z,13.98
2023-04-19T09:39:57.342Z,14.98
2023-04-19T09:42:47.346Z,14.79
2023-04-19T09:45:29.304Z,15.57
2023-04-19T09:48:07.433Z,15.17
2023-04-19T09:50:50.324Z,15.50
2023-04-19T09:53:24.722Z,14.97
2023-04-19T09:56:01.308Z,15.67
2023-04-19T09:58:38.156Z,15.10
2023-04-19T10:01:17.098Z,14.96
2023-04-19T10:03:49.141Z,15.26
2023-04-19T10:06:35.676Z,15.91
2023-04-19T10:09:07.198Z,15.23
2023-04-19T10:11:40.101Z,14.42
2023-04-19T10:14:09.441Z,13.95
2023-04-19T10:16:39.245Z,14.56
2023-04-19T10:19:10.321Z,14.78
2023-04-19T10:21:39.424Z,14.77
2023-04-19T10:24:10.344Z,15.30
2023-04-19T10:27:11.053Z,15.93
2023-04-19T10:29:59.291Z,15.50
2023-04-19T10:32:29.524Z,15.05
2023-04-19T10:35:02.862Z,14.69
2023-04-19T10:37:32.690Z,14.70
2023-04-19T10:40:01.853Z,14.66
2023-04-19T10:43:02.750Z,15.10
2023-04-19T10:45:34.434Z,14.42
2023-04-19T10:48:04.530Z,14.62
2023-04-19T10:51:02.133Z,14.39
2023-04-19T10:53:45.837Z,14.82
2023-04-19T10:56:16.078Z,14.83
2023-04-19T10:59:24.253Z,14.71
2023-04-19T11:01:57.632Z,14.86
2023-04-19T11:05:09.842Z,15.00
2023-04-19T11:07:42.084Z,14.70
2023-04-19T11:10:11.473Z,14.59
2023-04-19T11:12:44.038Z,14.20
2023-04-19T11:15:12.045Z,14.55
2023-04-19T11:17:39.893Z,14.44
2023-04-19T11:20:10.844Z,14.04
2023-04-19T11:22:39.759Z,14.15
2023-04-19T11:25:12.581Z,14.82
2023-04-19T11:27:43.049Z,15.09
2023-04-19T11:30:13.338Z,16.77
2023-04-19T11:32:46.915Z,16.87
2023-04-19T11:35:14.982Z,16.56
2023-04-19T11:37:42.711Z,16.67
2023-04-19T11:40:15.608Z,16.73
2023-04-19T11:42:44.969Z,16.02
2023-04-19T11:45:25.928Z,16.10
2023-04-19T11:47:57.182Z,16.20
2023-04-19T11:50:36.180Z,15.53
2023-04-19T11:53:12.224Z,15.80
2023-04-19T11:55:40.132Z,16.27
2023-04-19T11:58:10.544Z,15.96
2023-04-19T12:00:38.413Z,15.96
2023-04-19T12:03:06.370Z,16.09
2023-04-19T12:05:34.847Z,16.99
2023-04-19T12:08:03.937Z,17.30
2023-04-19T12:10:32.061Z,17.83
2023-04-19T12:13:00.350Z,17.14
2023-04-19T12:15:44.712Z,17.46
2023-04-19T12:18:12.729Z,16.76
2023-04-19T12:20:46.305Z,17.91
2023-04-19T12:23:15.762Z,17.04
2023-04-19T12:25:44.758Z,17.13
2023-04-19T12:28:12.637Z,17.40
2023-04-19T12:30:40.782Z,17.95
2023-04-19T12:33:10.370Z,17.55
2023-04-19T12:35:39.145Z,17.09
2023-04-19T12:38:06.926Z,16.87
2023-04-19T12:40:35.084Z,17.44
2023-04-19T12:43:02.972Z,16.99
2023-04-19T12:45:30.757Z,17.09
2023-04-19T12:47:58.562Z,17.34
2023-04-19T12:50:27.710Z,17.60
2023-04-19T12:52:55.494Z,18.20
2023-04-19T12:55:23.302Z,17.72
2023-04-19T12:57:51.101Z,16.55
2023-04-19T13:00:19.342Z,17.17
2023-04-19T13:02:48.342Z,17.10
2023-04-19T13:05:16.431Z,17.70
2023-04-19T13:07:45.539Z,17.94
2023-04-19T13:10:13.508Z,18.58
2023-04-19T13:12:41.365Z,18.19
2023-04-19T13:15:10.574Z,16.84
2023-04-19T13:17:38.451Z,16.53
2023-04-19T13:20:07.541Z,16.73
2023-04-19T13:22:35.353Z,16.36
2023-04-19T13:25:05.021Z,16.59
2023-04-19T13:27:32.797Z,17.06
2023-04-19T13:30:01.045Z,15.87
2023-04-19T13:32:28.805Z,15.64
2023-04-19T13:34:56.618Z,16.24
2023-04-19T13:37:24.371Z,15.04
2023-04-19T13:39:52.443Z,15.13
2023-04-19T13:42:23.283Z,15.29
2023-04-19T13:44:51.008Z,14.37
2023-04-19T13:47:18.735Z,15.40
2023-04-19T13:49:52.032Z,15.45
2023-04-19T13:52:19.966Z,15.59
2023-04-19T13:54:47.702Z,15.10
2023-04-19T13:57:15.558Z,15.97
2023-04-19T13:59:44.629Z,14.98
2023-04-19T14:02:12.479Z,15.29
2023-04-19T14:04:40.374Z,14.45
2023-04-19T14:07:08.553Z,14.33
2023-04-19T14:09:36.749Z,15.23
2023-04-19T14:12:05.212Z,14.52
2023-04-19T14:14:33.220Z,14.58
2023-04-19T14:17:02.356Z,14.80
2023-04-19T14:19:30.090Z,14.07
2023-04-19T14:21:58.207Z,14.13
2023-04-19T14:24:26.060Z,13.98
2023-04-19T14:27:09.141Z,13.60
2023-04-19T14:29:37.907Z,13.58
2023-04-19T14:32:23.633Z,13.53
2023-04-19T14:34:52.771Z,14.37
2023-04-19T14:37:20.548Z,13.75
2023-04-19T14:39:48.479Z,14.07
2023-04-19T14:42:16.214Z,13.68
2023-04-19T14:44:43.933Z,13.58
2023-04-19T14:47:13.114Z,14.05
2023-04-19T14:49:41.545Z,14.53
2023-04-19T14:52:09.461Z,13.78
2023-04-19T14:54:37.172Z,14.13
2023-04-19T14:57:05.060Z,15.70
2023-04-19T14:59:32.795Z,14.92
2023-04-19T15:02:00.553Z,14.24
2023-04-19T15:04:29.689Z,14.13
2023-04-19T15:06:57.451Z,14.18
2023-04-19T15:09:25.122Z,13.76
2023-04-19T15:11:52.815Z,13.77
2023-04-19T15:14:21.082Z,13.25
2023-04-19T15:16:48.871Z,12.81
2023-04-19T15:19:16.903Z,13.64
2023-04-19T15:21:46.265Z,13.39
2023-04-19T15:24:13.989Z,12.97
2023-04-19T15:26:44.123Z,12.87
2023-04-19T15:29:12.190Z,13.26
2023-04-19T15:31:40.066Z,13.44
2023-04-19T15:34:07.932Z,13.18
2023-04-19T15:36:35.697Z,12.79
2023-04-19T15:39:04.956Z,12.83
2023-04-19T15:41:32.652Z,13.07
2023-04-19T15:44:01.142Z,12.72
2023-04-19T15:46:28.951Z,12.75
2023-04-19T15:48:56.695Z,12.57
2023-04-19T15:51:24.395Z,12.47
2023-04-19T15:53:52.359Z,12.74
2023-04-19T15:56:21.423Z,12.23
2023-04-19T15:58:49.151Z,12.64
2023-04-19T16:01:18.842Z,12.52
2023-04-19T16:03:47.169Z,11.81
2023-04-19T16:06:15.156Z,12.84
2023-04-19T16:08:42.911Z,12.36
2023-04-19T16:11:10.820Z,12.45
2023-04-19T16:13:39.952Z,12.19
2023-04-19T16:16:08.177Z,12.26
2023-04-19T16:18:35.932Z,12.64
2023-04-19T16:21:04.611Z,12.26
2023-04-19T16:23:32.317Z,12.30
2023-04-19T16:26:00.008Z,12.58
2023-04-19T16:28:27.751Z,12.26
2023-04-19T16:30:56.854Z,12.47
2023-04-19T16:33:24.590Z,12.72
2023-04-19T16:35:52.394Z,12.53
2023-04-19T16:38:20.144Z,12.55
2023-04-19T16:40:48.625Z,12.90
2023-04-19T16:43:16.453Z,12.36
2023-04-19T16:45:44.242Z,12.72
2023-04-19T16:48:13.447Z,12.25
2023-04-19T16:50:41.193Z,12.08
2023-04-19T16:53:09.117Z,12.27
2023-04-19T16:55:37.422Z,12.28
2023-04-19T16:58:05.479Z,12.00
2023-04-19T17:00:33.422Z,12.17
2023-04-19T17:03:01.599Z,12.44
2023-04-19T17:05:30.932Z,12.17
2023-04-19T17:07:58.708Z,12.01
2023-04-19T17:10:27.714Z,12.24
2023-04-19T17:12:56.413Z,12.10
2023-04-19T17:15:24.247Z,12.07
2023-04-19T17:17:52.168Z,12.29
2023-04-19T17:20:20.239Z,12.29
2023-04-19T17:22:49.350Z,12.48
2023-04-19T17:25:17.088Z,12.50
2023-04-19T17:27:44.863Z,11.93
2023-04-19T17:30:13.338Z,12.17
2023-04-19T17:32:42.240Z,12.15
2023-04-19T17:35:10.500Z,12.13
2023-04-19T17:37:38.287Z,12.89
2023-04-19T17:40:09.052Z,12.10
2023-04-19T17:42:36.811Z,12.20
2023-04-19T17:45:06.619Z,12.32
2023-04-19T17:47:34.383Z,12.41
2023-04-19T17:50:07.222Z,11.89
2023-04-19T17:52:35.100Z,12.09
2023-04-19T17:55:04.550Z,12.05
2023-04-19T17:57:34.172Z,11.74
2023-04-19T18:00:06.090Z,11.79
2023-04-19T18:02:33.992Z,12.05
2023-04-19T18:05:02.042Z,12.12
2023-04-19T18:07:30.050Z,11.71
2023-04-19T18:09:57.762Z,11.85
2023-04-19T18:12:25.569Z,12.07
2023-04-19T18:14:54.647Z,12.11
2023-04-19T18:17:22.391Z,12.16
2023-04-19T18:19:50.122Z,11.25
2023-04-19T18:22:17.916Z,11.07
2023-04-19T18:24:47.320Z,10.21
2023-04-19T18:27:15.105Z,10.10
2023-04-19T18:29:42.849Z,10.17
2023-04-19T18:32:13.042Z,10.57
2023-04-19T18:34:41.367Z,10.08
2023-04-19T18:37:16.198Z,10.35
2023-04-19T18:39:44.004Z,10.51
2023-04-19T18:42:11.807Z,10.24
2023-04-19T18:44:53.016Z,10.57
2023-04-19T18:47:23.578Z,10.27
2023-04-19T18:50:03.450Z,11.13
2023-04-19T18:52:32.661Z,10.58
2023-04-19T18:55:00.778Z,10.79
2023-04-19T18:57:30.500Z,10.22
2023-04-19T19:00:01.579Z,10.54
2023-04-19T19:02:30.949Z,10.13
2023-04-19T19:05:01.970Z,10.49
2023-04-19T19:10:04.056Z,10.57
2023-04-19T19:12:42.759Z,10.88
2023-04-19T19:15:11.276Z,10.51
2023-04-19T19:17:40.749Z,10.64
2023-04-19T19:20:10.555Z,10.79
2023-04-19T19:22:38.261Z,10.26
2023-04-19T19:25:07.082Z,10.01
2023-04-19T19:27:35.326Z,10.17
2023-04-19T19:30:03.521Z,10.87
2023-04-19T19:32:32.165Z,10.46
2023-04-19T19:35:05.339Z,10.31
2023-04-19T19:37:35.720Z,10.29
2023-04-19T19:40:05.251Z,10.83
2023-04-19T19:42:34.204Z,10.23
2023-04-19T19:45:03.402Z,10.67
2023-04-19T19:47:35.201Z,10.49
2023-04-19T19:50:52.065Z,10.96
2023-04-19T19:52:54.263Z,10.45
2023-04-19T19:55:22.076Z,10.64
2023-04-19T19:58:25.746Z,10.59
2023-04-19T20:00:46.299Z,10.93
2023-04-19T20:03:24.734Z,11.30
2023-04-19T20:06:17.887Z,11.12
2023-04-19T20:08:50.103Z,11.07
2023-04-19T20:11:17.985Z,10.98
2023-04-19T20:13:45.883Z,10.84
2023-04-19T20:16:14.630Z,11.52
2023-04-19T20:18:43.097Z,11.03
2023-04-19T20:21:12.235Z,11.13
2023-04-19T20:23:40.682Z,11.16
2023-04-19T20:26:08.642Z,11.08
2023-04-19T20:28:36.556Z,11.29
2023-04-19T20:31:04.297Z,11.26
2023-04-19T20:33:31.988Z,11.51
2023-04-19T20:36:00.593Z,11.62
2023-04-19T20:38:29.799Z,11.14
2023-04-19T20:40:57.582Z,11.27
2023-04-19T20:43:26.019Z,10.73
2023-04-19T20:45:54.457Z,11.17
2023-04-19T20:48:22.258Z,11.42
2023-04-19T20:50:50.000Z,10.87
2023-04-19T20:53:17.779Z,11.44
2023-04-19T20:55:46.860Z,10.77
2023-04-19T20:58:14.564Z,11.23
2023-04-19T21:00:42.337Z,10.94
2023-04-19T21:03:10.339Z,10.92
2023-04-19T21:05:38.129Z,11.28
2023-04-19T21:08:06.076Z,10.96
2023-04-19T21:10:33.824Z,11.06
2023-04-19T21:13:02.916Z,10.57
2023-04-19T21:15:30.680Z,11.05
2023-04-19T21:17:58.484Z,11.12
2023-04-19T21:20:26.462Z,10.49
2023-04-19T21:22:54.170Z,10.58
2023-04-19T21:25:22.016Z,10.73
2023-04-19T21:27:50.189Z,10.84
2023-04-19T21:30:20.426Z,10.52
2023-04-19T21:32:49.139Z,10.62
2023-04-19T21:35:16.950Z,10.63
2023-04-19T21:37:44.702Z,10.98
2023-04-19T21:40:13.075Z,10.71
2023-04-19T21:42:41.178Z,10.34
2023-04-19T21:45:09.955Z,11.06
2023-04-19T21:47:39.090Z,10.93
2023-04-19T21:50:08.192Z,10.85
2023-04-19T21:52:35.998Z,10.76
2023-04-19T21:55:03.782Z,10.76
2023-04-19T21:57:31.566Z,10.61
2023-04-19T21:59:59.494Z,10.76
2023-04-19T22:02:27.318Z,10.37
2023-04-19T22:04:56.685Z,10.67
2023-04-19T22:07:24.448Z,10.66
2023-04-19T22:09:52.283Z,10.76
2023-04-19T22:12:20.050Z,10.82
2023-04-19T22:14:47.746Z,10.76
2023-04-19T22:17:18.493Z,10.62
2023-04-19T22:19:46.711Z,10.50
2023-04-19T22:22:16.388Z,10.86
2023-04-19T22:24:56.154Z,10.69
2023-04-19T22:27:25.201Z,11.19
2023-04-19T22:29:52.979Z,10.27
2023-04-19T22:32:20.792Z,10.97
2023-04-19T22:34:48.593Z,10.78
2023-04-19T22:37:17.753Z,10.47
2023-04-19T22:39:45.583Z,10.80
2023-04-19T22:42:13.451Z,10.39
2023-04-19T22:44:42.510Z,10.93
2023-04-19T22:47:11.860Z,10.78
2023-04-19T22:49:43.008Z,10.64
2023-04-19T22:52:11.295Z,10.78
2023-04-19T22:54:40.404Z,10.87
2023-04-19T22:57:08.220Z,10.24
2023-04-19T22:59:35.960Z,10.55
2023-04-19T23:02:04.275Z,10.76
2023-04-19T23:04:34.327Z,9.65
2023-04-19T23:07:02.225Z,10.39
2023-04-19T23:09:30.393Z,10.43
2023-04-19T23:12:00.709Z,9.87
2023-04-19T23:14:29.910Z,10.01
2023-04-19T23:16:58.529Z,10.10
2023-04-19T23:19:26.342Z,10.40
2023-04-19T23:21:54.091Z,9.84
2023-04-19T23:24:21.793Z,9.91
2023-04-19T23:26:49.536Z,9.94
2023-04-19T23:29:18.837Z,9.75
2023-04-19T23:31:46.843Z,9.56
2023-04-19T23:34:15.008Z,9.77
2023-04-19T23:36:42.743Z,10.28
2023-04-19T23:39:10.745Z,9.72
2023-04-19T23:41:38.546Z,9.91
2023-04-19T23:44:06.596Z,9.94
2023-04-19T23:46:35.786Z,9.49
2023-04-19T23:49:03.738Z,10.01
2023-04-19T23:51:32.826Z,9.93
2023-04-19T23:54:00.600Z,10.38
2023-04-19T23:56:28.352Z,10.46
2023-04-19T23:58:56.353Z,9.87
